createdAt,value
2023-05-06T00:04:26.991Z,11.60
2023-05-06T00:14:31.208Z,12.82
2023-05-06T00:24:33.683Z,17.17
2023-05-06T00:34:41.618Z,11.00
2023-05-06T00:44:44.425Z,13.82
2023-05-06T00:54:46.346Z,18.58
2023-05-06T01:04:48.133Z,10.18
2023-05-06T01:15:33.622Z,13.15
2023-05-06T01:25:35.483Z,11.20
2023-05-06T01:36:15.287Z,13.43
2023-05-06T01:46:24.802Z,8.18
2023-05-06T01:56:27.177Z,13.90
2023-05-06T02:06:30.863Z,13.63
2023-05-06T02:16:32.692Z,11.70
2023-05-06T02:26:35.891Z,12.43
2023-05-06T02:36:39.627Z,10.60
2023-05-06T02:46:42.339Z,14.55
2023-05-06T02:56:50.256Z,12.37
2023-05-06T03:06:54.377Z,11.43
2023-05-06T03:16:59.295Z,12.52
2023-05-06T03:27:02.502Z,11.30
2023-05-06T03:37:04.354Z,13.57
2023-05-06T03:47:06.012Z,12.77
2023-05-06T03:57:07.646Z,13.05
2023-05-06T04:07:21.346Z,12.73
2023-05-06T04:17:23.133Z,11.35
2023-05-06T04:27:29.903Z,12.05
2023-05-06T04:37:32.012Z,12.05
2023-05-06T04:47:34.563Z,12.40
2023-05-06T04:57:36.414Z,15.37
2023-05-06T05:07:39.515Z,16.80
2023-05-06T05:17:41.877Z,15.57
2023-05-06T05:27:47.193Z,10.70
2023-05-06T05:37:50.301Z,12.18
2023-05-06T05:47:54.100Z,12.48
2023-05-06T05:57:59.103Z,17.85
2023-05-06T06:08:03.503Z,10.60
2023-05-06T06:18:17.544Z,11.30
2023-05-06T06:28:19.919Z,13.57
2023-05-06T06:38:23.211Z,14.77
2023-05-06T06:48:25.059Z,9.52
2023-05-06T06:58:30.632Z,13.23
2023-05-06T07:08:32.328Z,10.23
2023-05-06T07:18:36.413Z,9.68
2023-05-06T07:28:38.039Z,15.90
2023-05-06T07:38:41.568Z,10.85
2023-05-06T07:48:46.187Z,16.02
2023-05-06T07:58:49.510Z,10.93
2023-05-06T08:08:51.590Z,9.27
2023-05-06T08:18:53.489Z,9.27
2023-05-06T08:28:58.697Z,14.05
2023-05-06T08:39:01.446Z,20.27
2023-05-06T08:49:04.497Z,8.70
2023-05-06T08:59:10.472Z,10.18
2023-05-06T09:09:13.143Z,11.00
2023-05-06T09:19:23.747Z,7.30
2023-05-06T09:29:29.323Z,6.55
2023-05-06T09:39:31.229Z,10.77
2023-05-06T09:49:34.072Z,7.35
2023-05-06T09:59:44.372Z,4.00
2023-05-06T10:09:48.300Z,7.55
2023-05-06T10:19:52.617Z,6.30
2023-05-06T10:29:59.181Z,6.75
2023-05-06T10:40:07.308Z,8.23
2023-05-06T10:50:24.879Z,4.22
2023-05-06T11:00:36.860Z,4.25
2023-05-06T11:10:40.275Z,8.60
2023-05-06T11:20:42.094Z,5.88
2023-05-06T11:30:53.981Z,6.75
2023-05-06T11:40:57.976Z,5.50
2023-05-06T11:50:59.972Z,5.47
2023-05-06T12:01:03.400Z,5.15
2023-05-06T12:11:08.197Z,6.47
2023-05-06T12:21:10.164Z,6.03
2023-05-06T12:31:22.537Z,5.65
2023-05-06T12:41:35.136Z,3.10
2023-05-06T12:51:37.787Z,4.50
2023-05-06T13:01:41.056Z,6.20
2023-05-06T13:11:42.920Z,5.57
2023-05-06T13:21:46.468Z,8.13
2023-05-06T13:31:49.259Z,3.05
2023-05-06T13:41:51.789Z,5.35
2023-05-06T13:51:54.511Z,5.65
2023-05-06T14:01:56.591Z,8.35
2023-05-06T14:11:58.726Z,4.18
2023-05-06T14:22:00.559Z,7.10
2023-05-06T14:32:02.513Z,7.70
2023-05-06T14:42:04.393Z,8.43
2023-05-06T14:52:08.059Z,11.95
2023-05-06T15:02:10.564Z,7.57
2023-05-06T15:12:12.898Z,10.50
2023-05-06T15:22:16.921Z,10.52
2023-05-06T15:32:18.672Z,7.68
2023-05-06T15:42:25.821Z,8.27
2023-05-06T15:52:27.445Z,6.97
2023-05-06T16:02:32.928Z,9.68
2023-05-06T16:12:40.254Z,8.00
2023-05-06T16:22:41.989Z,9.48
2023-05-06T16:32:45.276Z,6.68
2023-05-06T16:42:49.478Z,12.20
2023-05-06T16:52:54.435Z,6.47
2023-05-06T17:03:03.939Z,7.90
2023-05-06T17:13:06.094Z,6.05
2023-05-06T17:23:07.785Z,9.90
2023-05-06T17:43:12.227Z,7.80
2023-05-06T17:53:14.109Z,10.52
2023-05-06T18:13:18.900Z,11.05
2023-05-06T18:23:23.097Z,9.50
2023-05-06T18:33:27.357Z,13.93
2023-05-06T18:43:33.326Z,12.57
2023-05-06T18:53:35.524Z,13.80
2023-05-06T19:03:41.588Z,16.05
2023-05-06T19:13:45.069Z,13.43
2023-05-06T19:23:47.218Z,13.90
2023-05-06T19:43:51.388Z,12.75
2023-05-06T19:53:53.382Z,15.05
2023-05-06T20:03:57.166Z,12.98
2023-05-06T20:13:58.954Z,16.95
2023-05-06T20:24:00.855Z,14.15
2023-05-06T20:34:04.768Z,13.63
2023-05-06T20:44:07.696Z,15.63
2023-05-06T20:54:21.740Z,16.40
2023-05-06T21:04:26.589Z,13.15
2023-05-06T21:14:42.748Z,17.08
2023-05-06T21:24:44.470Z,17.05
2023-05-06T21:34:46.690Z,17.27
2023-05-06T21:54:58.236Z,17.33
2023-05-06T22:05:01.940Z,16.90
2023-05-06T22:15:10.517Z,19.88
2023-05-06T22:25:14.354Z,15.82
2023-05-06T22:35:28.228Z,15.57
2023-05-06T22:45:29.901Z,13.77
2023-05-06T22:55:31.948Z,17.50
2023-05-06T23:05:34.767Z,17.50
2023-05-06T23:15:36.834Z,15.30
2023-05-06T23:25:38.595Z,13.82
2023-05-06T23:35:41.331Z,14.40
2023-05-06T23:45:43.204Z,14.02
2023-05-06T23:55:46.217Z,14.00
